Time;durP1;ratioP1;P1;durP2;ratioP2;P2;SDS_P1;SDS_P2;PMS_P1;PMS_P2;Temp;Humidity;BMP_temperature;BMP_pressure;BME280_temperature;BME280_humidity;BME280_pressure;Samples;Min_cycle;Max_cycle;Signal;HPM_P1;HPM_P2
2022/01/14 00:02:10;;;;;;;35.13;17.60;;;;;;;;;;5052101;28;20078;-64
2022/01/14 00:04:37;;;;;;;36.65;17.85;;;;;;;;;;5052537;28;20423;-64
2022/01/14 00:07:03;;;;;;;41.50;19.05;;;;;;;;;;5053568;28;20025;-64
2022/01/14 00:09:30;;;;;;;46.88;19.08;;;;;;;;;;5053117;28;20384;-63
2022/01/14 00:11:58;;;;;;;33.95;16.88;;;;;;;;;;5053513;28;20028;-68
2022/01/14 00:14:45;;;;;;;36.97;18.20;;;;;;;;;;5053900;28;20438;-69
2022/01/14 00:17:15;;;;;;;33.95;16.85;;;;;;;;;;5053738;28;20403;-69
2022/01/14 00:19:42;;;;;;;32.85;15.55;;;;;;;;;;5052318;28;20032;-68
2022/01/14 00:22:13;;;;;;;37.17;16.85;;;;;;;;;;5053887;28;20037;-65
2022/01/14 00:33:16;;;;;;;36.08;17.90;;;;;;;;;;5053665;28;20496;-68
2022/01/14 00:35:42;;;;;;;35.17;17.13;;;;;;;;;;5052294;28;20087;-66
2022/01/14 00:38:12;;;;;;;31.58;16.58;;;;;;;;;;5053317;28;20094;-65
2022/01/14 00:40:39;;;;;;;30.90;15.13;;;;;;;;;;5053065;28;20056;-66
2022/01/14 00:43:05;;;;;;;37.88;17.08;;;;;;;;;;5053316;28;20071;-63
2022/01/14 00:45:30;;;;;;;34.42;16.98;;;;;;;;;;5051813;28;20056;-66
2022/01/14 00:47:56;;;;;;;32.00;16.88;;;;;;;;;;5053098;28;20040;-68
2022/01/14 00:50:22;;;;;;;34.33;16.98;;;;;;;;;;5053149;28;20037;-68
2022/01/14 00:52:48;;;;;;;32.17;16.05;;;;;;;;;;5053097;28;20028;-67
2022/01/14 00:55:18;;;;;;;35.65;18.27;;;;;;;;;;5053241;28;20040;-66
2022/01/14 01:00:26;;;;;;;45.88;21.88;;;;;;;;;;5045839;28;20046;-65
2022/01/14 01:02:51;;;;;;;41.90;21.80;;;;;;;;;;5032186;28;20043;-67
2022/01/14 01:05:18;;;;;;;48.25;21.58;;;;;;;;;;5033068;28;20030;-65
2022/01/14 01:07:51;;;;;;;43.15;22.35;;;;;;;;;;5033006;28;20125;-65
2022/01/14 01:10:18;;;;;;;47.50;23.90;;;;;;;;;;5033310;28;20536;-64
2022/01/14 01:12:52;;;;;;;42.95;22.45;;;;;;;;;;5033083;28;20056;-65
2022/01/14 01:15:20;;;;;;;45.85;22.50;;;;;;;;;;5032939;28;20041;-64
2022/01/14 01:17:45;;;;;;;47.50;24.08;;;;;;;;;;5032727;28;20025;-64
2022/01/14 01:20:17;;;;;;;47.50;22.17;;;;;;;;;;5032534;28;20105;-66
2022/01/14 01:22:48;;;;;;;41.13;21.25;;;;;;;;;;5031834;28;20064;-66
2022/01/14 01:25:28;;;;;;;45.55;22.88;;;;;;;;;;5031480;28;20034;-65
2022/01/14 01:27:54;;;;;;;55.78;25.77;;;;;;;;;;5032471;28;20137;-64
2022/01/14 01:32:59;;;;;;;58.25;24.58;;;;;;;;;;5032478;28;20037;-65
2022/01/14 01:35:26;;;;;;;49.72;22.75;;;;;;;;;;5032260;28;20542;-65
2022/01/14 01:37:52;;;;;;;47.40;22.35;;;;;;;;;;5031896;28;20029;-64
2022/01/14 01:40:20;;;;;;;45.30;21.92;;;;;;;;;;5031972;28;20033;-65
2022/01/14 01:42:46;;;;;;;44.42;20.38;;;;;;;;;;5032281;28;20033;-65
2022/01/14 01:45:20;;;;;;;43.97;20.38;;;;;;;;;;5032462;28;20026;-65
2022/01/14 01:47:50;;;;;;;33.72;17.45;;;;;;;;;;5032297;28;20045;-65
2022/01/14 01:50:25;;;;;;;38.78;19.10;;;;;;;;;;5032312;28;20033;-65
2022/01/14 01:52:51;;;;;;;35.42;14.68;;;;;;;;;;5031875;28;20488;-66
2022/01/14 01:55:18;;;;;;;33.08;15.98;;;;;;;;;;5032239;28;20392;-63
2022/01/14 01:57:44;;;;;;;26.88;13.77;;;;;;;;;;5032215;28;20040;-63
2022/01/14 02:00:13;;;;;;;28.73;13.40;;;;;;;;;;5031871;28;20435;-66
2022/01/14 02:02:42;;;;;;;39.28;20.15;;;;;;;;;;5021428;28;20076;-64
2022/01/14 02:05:08;;;;;;;42.63;18.40;;;;;;;;;;5013139;28;20018;-65
2022/01/14 02:07:35;;;;;;;44.33;20.70;;;;;;;;;;5012061;28;20426;-64
2022/01/14 02:10:02;;;;;;;38.35;18.92;;;;;;;;;;5012293;28;20034;-65
2022/01/14 02:12:36;;;;;;;33.90;18.25;;;;;;;;;;5011972;28;20144;-66
2022/01/14 02:15:10;;;;;;;42.42;19.80;;;;;;;;;;5010468;28;20038;-70
2022/01/14 02:22:56;;;;;;;34.78;16.45;;;;;;;;;;5011761;28;20041;-65
2022/01/14 02:25:32;;;;;;;33.60;16.73;;;;;;;;;;5011969;28;20038;-71
2022/01/14 02:28:01;;;;;;;34.97;17.52;;;;;;;;;;5011484;28;20080;-68
2022/01/14 02:30:29;;;;;;;38.20;19.20;;;;;;;;;;5011822;28;20473;-67
2022/01/14 02:32:55;;;;;;;34.55;17.38;;;;;;;;;;5012600;28;20296;-65
2022/01/14 02:35:21;;;;;;;49.78;20.92;;;;;;;;;;5015894;28;20551;-67
2022/01/14 02:37:47;;;;;;;42.67;20.30;;;;;;;;;;5016093;28;20037;-65
2022/01/14 02:40:14;;;;;;;27.02;14.73;;;;;;;;;;5015699;28;20380;-67
2022/01/14 02:42:40;;;;;;;30.35;13.35;;;;;;;;;;5015765;28;20534;-63
2022/01/14 02:45:10;;;;;;;27.23;14.10;;;;;;;;;;5015846;28;20029;-64
2022/01/14 02:47:37;;;;;;;23.95;12.23;;;;;;;;;;5024368;28;20038;-69
2022/01/14 02:50:07;;;;;;;20.90;10.85;;;;;;;;;;5028116;28;20088;-66
2022/01/14 02:52:54;;;;;;;19.33;10.82;;;;;;;;;;5015567;28;20042;-63
2022/01/14 02:55:23;;;;;;;20.60;10.80;;;;;;;;;;5017036;28;20026;-64
2022/01/14 02:57:52;;;;;;;22.67;11.35;;;;;;;;;;5035329;28;20021;-64
2022/01/14 03:00:22;;;;;;;27.10;11.90;;;;;;;;;;5035350;28;20030;-65
2022/01/14 03:02:50;;;;;;;26.17;11.55;;;;;;;;;;5035702;28;20056;-63
2022/01/14 03:05:18;;;;;;;26.58;11.88;;;;;;;;;;5023602;28;20096;-65
2022/01/14 03:07:45;;;;;;;24.38;11.63;;;;;;;;;;5035055;28;20033;-63
2022/01/14 03:10:15;;;;;;;26.27;11.50;;;;;;;;;;5035130;28;20025;-64
2022/01/14 03:12:42;;;;;;;23.40;11.25;;;;;;;;;;5034271;28;20495;-64
2022/01/14 03:15:09;;;;;;;23.77;11.05;;;;;;;;;;5015796;28;20030;-63
2022/01/14 03:17:35;;;;;;;20.27;11.32;;;;;;;;;;5015258;28;20046;-65
2022/01/14 03:20:06;;;;;;;28.02;12.30;;;;;;;;;;5015055;28;20033;-64
2022/01/14 03:22:35;;;;;;;25.05;11.23;;;;;;;;;;5015431;28;20045;-64
2022/01/14 03:27:49;;;;;;;25.63;11.52;;;;;;;;;;5015037;28;20045;-64
2022/01/14 03:30:15;;;;;;;24.70;11.38;;;;;;;;;;5015321;28;20086;-64
2022/01/14 03:32:41;;;;;;;23.77;11.25;;;;;;;;;;5015430;28;20501;-64
2022/01/14 03:35:09;;;;;;;24.55;11.63;;;;;;;;;;5014669;28;20097;-64
2022/01/14 03:37:35;;;;;;;27.02;12.73;;;;;;;;;;5015064;28;20033;-64
2022/01/14 03:40:02;;;;;;;22.35;11.55;;;;;;;;;;5030412;28;20030;-65
2022/01/14 03:42:28;;;;;;;22.23;11.93;;;;;;;;;;5015369;28;20576;-65
2022/01/14 03:44:54;;;;;;;25.88;11.40;;;;;;;;;;5014385;28;20105;-63
2022/01/14 03:47:20;;;;;;;23.42;11.93;;;;;;;;;;5014546;28;20053;-64
2022/01/14 03:49:46;;;;;;;26.42;13.23;;;;;;;;;;5022976;28;20025;-65
2022/01/14 03:52:12;;;;;;;32.70;13.63;;;;;;;;;;5014548;28;20042;-63
2022/01/14 03:54:37;;;;;;;24.65;12.05;;;;;;;;;;5015226;28;20024;-64
2022/01/14 03:57:03;;;;;;;26.05;12.68;;;;;;;;;;5014728;28;20050;-64
2022/01/14 03:59:29;;;;;;;26.85;12.82;;;;;;;;;;5014349;28;20048;-66
2022/01/14 04:01:55;;;;;;;30.58;13.77;;;;;;;;;;5014806;28;20045;-64
2022/01/14 04:04:20;;;;;;;29.67;14.45;;;;;;;;;;5014478;28;20105;-64
2022/01/14 04:06:46;;;;;;;31.02;13.77;;;;;;;;;;5014399;28;20417;-66
2022/01/14 04:09:12;;;;;;;29.45;14.10;;;;;;;;;;5013753;28;20034;-65
2022/01/14 04:11:39;;;;;;;30.65;13.63;;;;;;;;;;5013892;28;20064;-63
2022/01/14 04:16:56;;;;;;;28.80;13.85;;;;;;;;;;5007655;28;20065;-66
2022/01/14 04:19:25;;;;;;;29.75;13.27;;;;;;;;;;5013594;28;20080;-68
2022/01/14 04:21:51;;;;;;;29.52;13.27;;;;;;;;;;5015401;28;20348;-72
2022/01/14 04:24:16;;;;;;;32.30;15.10;;;;;;;;;;5022432;28;20101;-73
2022/01/14 04:26:42;;;;;;;31.50;15.45;;;;;;;;;;5014153;28;20041;-66
2022/01/14 04:29:08;;;;;;;29.58;14.18;;;;;;;;;;5014840;28;20034;-73
2022/01/14 04:31:34;;;;;;;36.40;15.77;;;;;;;;;;5014380;28;20061;-71
2022/01/14 04:33:59;;;;;;;29.60;13.77;;;;;;;;;;5014893;28;20045;-72
2022/01/14 04:36:25;;;;;;;28.85;14.18;;;;;;;;;;5014962;28;20026;-64
2022/01/14 04:38:51;;;;;;;40.38;15.75;;;;;;;;;;5014735;28;20100;-67
2022/01/14 04:41:17;;;;;;;29.92;14.98;;;;;;;;;;5012931;28;20025;-64
2022/01/14 04:43:42;;;;;;;28.83;14.48;;;;;;;;;;5014410;28;20440;-65
2022/01/14 04:48:36;;;;;;;38.40;13.82;;;;;;;;;;5014415;28;20429;-64
2022/01/14 04:51:05;;;;;;;29.17;14.63;;;;;;;;;;5014672;28;20048;-68
2022/01/14 04:53:31;;;;;;;47.35;15.88;;;;;;;;;;5014115;28;20026;-64
2022/01/14 04:55:58;;;;;;;42.75;15.63;;;;;;;;;;5014080;28;20113;-63
2022/01/14 04:58:25;;;;;;;36.00;14.27;;;;;;;;;;5013633;28;20462;-63
2022/01/14 05:00:51;;;;;;;33.88;15.40;;;;;;;;;;5014440;28;20034;-65
2022/01/14 05:03:17;;;;;;;33.47;15.38;;;;;;;;;;5013953;28;20029;-64
2022/01/14 05:05:46;;;;;;;36.67;17.70;;;;;;;;;;5014579;28;20047;-65
2022/01/14 05:08:19;;;;;;;38.70;17.58;;;;;;;;;;5024703;28;20140;-64
2022/01/14 05:11:01;;;;;;;45.28;18.08;;;;;;;;;;5020397;28;20041;-65
2022/01/14 05:13:27;;;;;;;34.33;15.60;;;;;;;;;;5013717;28;20030;-65
2022/01/14 05:15:53;;;;;;;33.50;14.80;;;;;;;;;;5013331;28;20473;-64
2022/01/14 05:18:20;;;;;;;36.22;17.17;;;;;;;;;;5013463;28;20030;-65
2022/01/14 05:20:46;;;;;;;41.20;18.70;;;;;;;;;;5013357;28;20108;-63
2022/01/14 05:23:11;;;;;;;43.17;18.52;;;;;;;;;;5013372;28;20118;-65
2022/01/14 05:25:37;;;;;;;34.25;16.45;;;;;;;;;;5013071;28;20045;-64
2022/01/14 05:28:03;;;;;;;28.88;14.55;;;;;;;;;;5013044;28;20084;-65
2022/01/14 05:30:29;;;;;;;32.88;15.90;;;;;;;;;;5011162;28;20382;-70
2022/01/14 05:32:56;;;;;;;27.20;14.02;;;;;;;;;;5025158;28;20040;-69
2022/01/14 05:35:27;;;;;;;39.28;16.17;;;;;;;;;;5033084;28;20404;-70
2022/01/14 05:37:53;;;;;;;36.00;16.52;;;;;;;;;;5032428;28;20037;-70
2022/01/14 05:40:21;;;;;;;27.83;14.90;;;;;;;;;;5030544;28;20021;-70
2022/01/14 05:42:47;;;;;;;41.25;17.20;;;;;;;;;;5031929;28;20037;-69
2022/01/14 05:45:15;;;;;;;28.58;14.23;;;;;;;;;;5033028;28;20373;-70
2022/01/14 05:47:41;;;;;;;35.63;15.23;;;;;;;;;;5032106;28;20037;-70
2022/01/14 05:50:11;;;;;;;38.70;15.18;;;;;;;;;;5032222;28;20063;-70
2022/01/14 05:52:37;;;;;;;30.63;13.50;;;;;;;;;;5031614;28;20037;-70
2022/01/14 05:55:04;;;;;;;28.10;13.60;;;;;;;;;;5032195;28;20560;-70
2022/01/14 05:57:34;;;;;;;27.02;14.00;;;;;;;;;;5032512;28;20107;-70
2022/01/14 06:00:01;;;;;;;33.53;14.95;;;;;;;;;;5032542;28;20037;-70
2022/01/14 06:02:27;;;;;;;32.85;15.95;;;;;;;;;;5032037;28;20029;-69
2022/01/14 06:04:52;;;;;;;39.17;17.05;;;;;;;;;;5032660;28;20388;-70
2022/01/14 06:07:18;;;;;;;33.60;17.55;;;;;;;;;;5031714;28;20033;-70
2022/01/14 06:09:44;;;;;;;34.30;16.38;;;;;;;;;;5031543;28;20489;-69
2022/01/14 06:12:10;;;;;;;33.42;16.50;;;;;;;;;;5030717;28;20042;-70
2022/01/14 06:14:36;;;;;;;34.67;17.67;;;;;;;;;;5030032;28;20416;-70
2022/01/14 06:17:02;;;;;;;38.38;17.73;;;;;;;;;;5031689;28;20121;-72
2022/01/14 06:19:29;;;;;;;44.13;17.85;;;;;;;;;;5032161;28;20069;-70
2022/01/14 06:21:56;;;;;;;38.05;17.83;;;;;;;;;;5032313;28;20099;-74
2022/01/14 06:24:22;;;;;;;44.92;17.98;;;;;;;;;;5031399;28;20032;-73
2022/01/14 06:26:48;;;;;;;37.05;17.40;;;;;;;;;;5031767;28;20068;-71
2022/01/14 06:29:14;;;;;;;34.33;16.67;;;;;;;;;;5031969;28;20057;-70
2022/01/14 06:31:40;;;;;;;43.78;18.77;;;;;;;;;;5031216;28;20133;-70
2022/01/14 06:34:07;;;;;;;44.58;20.98;;;;;;;;;;5031902;28;20041;-70
2022/01/14 06:36:33;;;;;;;44.30;19.80;;;;;;;;;;5032009;28;20439;-73
2022/01/14 06:38:59;;;;;;;40.70;19.08;;;;;;;;;;5031822;28;20047;-73
2022/01/14 06:41:24;;;;;;;34.95;18.60;;;;;;;;;;5031618;28;20037;-71
2022/01/14 06:43:50;;;;;;;42.88;21.27;;;;;;;;;;5031545;28;20030;-71
2022/01/14 06:46:17;;;;;;;39.10;19.58;;;;;;;;;;5032209;28;20108;-70
2022/01/14 06:48:42;;;;;;;48.78;18.85;;;;;;;;;;5031381;28;20103;-70
2022/01/14 06:51:14;;;;;;;41.53;20.20;;;;;;;;;;5031928;28;20480;-71
2022/01/14 06:53:41;;;;;;;37.75;21.02;;;;;;;;;;5031661;28;20369;-70
2022/01/14 06:56:07;;;;;;;39.15;18.20;;;;;;;;;;5029202;28;20044;-71
2022/01/14 06:58:33;;;;;;;40.72;18.20;;;;;;;;;;5031641;28;20109;-70
2022/01/14 07:00:59;;;;;;;40.42;19.80;;;;;;;;;;5031578;28;20029;-71
2022/01/14 07:03:25;;;;;;;33.50;17.58;;;;;;;;;;5031621;28;20366;-70
2022/01/14 07:05:50;;;;;;;32.40;17.77;;;;;;;;;;5031557;28;20021;-71
2022/01/14 07:08:16;;;;;;;33.55;17.70;;;;;;;;;;5031406;28;20464;-70
2022/01/14 07:10:42;;;;;;;30.58;17.05;;;;;;;;;;5031045;28;20380;-71
2022/01/14 07:13:08;;;;;;;32.40;17.92;;;;;;;;;;5031539;28;20037;-72
2022/01/14 07:15:33;;;;;;;28.48;16.95;;;;;;;;;;5031668;28;20510;-69
2022/01/14 07:17:59;;;;;;;28.73;16.98;;;;;;;;;;5031239;28;20040;-72
2022/01/14 07:20:25;;;;;;;31.48;19.17;;;;;;;;;;5032989;28;20043;-71
2022/01/14 07:22:51;;;;;;;41.83;22.85;;;;;;;;;;5035778;28;20053;-71
2022/01/14 07:25:18;;;;;;;41.58;24.75;;;;;;;;;;5035669;28;20079;-71
2022/01/14 07:27:43;;;;;;;40.45;22.23;;;;;;;;;;5034962;28;20029;-74
2022/01/14 07:30:10;;;;;;;37.42;18.98;;;;;;;;;;5034581;28;20033;-71
2022/01/14 07:32:36;;;;;;;36.67;21.05;;;;;;;;;;5034996;28;20038;-70
2022/01/14 07:35:03;;;;;;;42.25;21.60;;;;;;;;;;5035080;28;20102;-70
2022/01/14 07:37:28;;;;;;;33.83;19.27;;;;;;;;;;5034836;28;20053;-71
2022/01/14 07:39:54;;;;;;;36.63;19.75;;;;;;;;;;5035010;28;20457;-69
2022/01/14 07:42:20;;;;;;;42.85;22.95;;;;;;;;;;5035287;28;20036;-71
2022/01/14 07:44:46;;;;;;;45.50;22.70;;;;;;;;;;5033495;28;20176;-69
2022/01/14 07:47:12;;;;;;;49.92;23.17;;;;;;;;;;5034927;28;20103;-70
2022/01/14 07:49:37;;;;;;;42.72;22.20;;;;;;;;;;5035031;28;20132;-70
2022/01/14 07:52:04;;;;;;;40.28;22.80;;;;;;;;;;5034866;28;20492;-70
2022/01/14 07:54:29;;;;;;;46.47;22.77;;;;;;;;;;5034680;28;20063;-70
2022/01/14 07:56:58;;;;;;;39.40;21.60;;;;;;;;;;5034475;28;20112;-71
2022/01/14 07:59:26;;;;;;;43.55;22.38;;;;;;;;;;5035045;28;20033;-71
2022/01/14 08:01:58;;;;;;;45.22;22.83;;;;;;;;;;5034644;28;20112;-70
2022/01/14 08:04:25;;;;;;;42.33;21.45;;;;;;;;;;5034726;28;20108;-70
2022/01/14 08:06:53;;;;;;;46.83;21.65;;;;;;;;;;5032968;28;20111;-71
2022/01/14 08:09:20;;;;;;;41.78;22.10;;;;;;;;;;5033960;28;20045;-69
2022/01/14 08:11:46;;;;;;;40.55;21.92;;;;;;;;;;5034624;28;20026;-73
2022/01/14 08:14:13;;;;;;;41.95;20.17;;;;;;;;;;5034293;28;20045;-70
2022/01/14 08:16:39;;;;;;;36.90;19.55;;;;;;;;;;5034159;28;20029;-75
2022/01/14 08:19:05;;;;;;;38.25;20.40;;;;;;;;;;5033190;28;20369;-69
2022/01/14 08:21:31;;;;;;;41.78;20.92;;;;;;;;;;5032486;28;20109;-71
2022/01/14 08:23:57;;;;;;;42.95;20.45;;;;;;;;;;5048632;28;20040;-74
2022/01/14 08:26:24;;;;;;;41.95;20.60;;;;;;;;;;5034209;28;20049;-71
2022/01/14 08:28:50;;;;;;;44.63;21.63;;;;;;;;;;5036116;28;20087;-75
2022/01/14 08:31:16;;;;;;;39.92;21.13;;;;;;;;;;5033624;28;20423;-77
2022/01/14 08:33:43;;;;;;;42.03;22.25;;;;;;;;;;5033659;28;20476;-73
2022/01/14 08:36:09;;;;;;;49.47;20.17;;;;;;;;;;5032165;28;20369;-70
2022/01/14 08:38:37;;;;;;;40.38;22.00;;;;;;;;;;5033404;28;20060;-74
2022/01/14 08:41:03;;;;;;;47.40;23.38;;;;;;;;;;5033557;28;20333;-71
2022/01/14 08:43:29;;;;;;;40.50;23.90;;;;;;;;;;5033030;28;20026;-73
2022/01/14 08:45:58;;;;;;;44.72;22.73;;;;;;;;;;5033889;28;20041;-72
2022/01/14 08:48:25;;;;;;;41.75;22.10;;;;;;;;;;5033558;28;20427;-72
2022/01/14 08:50:52;;;;;;;40.50;21.98;;;;;;;;;;5033419;28;20060;-70
2022/01/14 08:53:18;;;;;;;40.92;20.30;;;;;;;;;;5033475;28;20093;-69
2022/01/14 08:55:44;;;;;;;46.47;21.45;;;;;;;;;;5033455;28;20462;-70
2022/01/14 08:58:10;;;;;;;41.63;21.13;;;;;;;;;;5033179;28;20484;-69
2022/01/14 09:00:37;;;;;;;40.25;20.10;;;;;;;;;;5033432;28;20044;-70
2022/01/14 09:03:05;;;;;;;41.67;20.92;;;;;;;;;;5033072;28;20069;-69
2022/01/14 09:05:32;;;;;;;43.78;20.83;;;;;;;;;;5033158;28;20033;-67
2022/01/14 09:07:59;;;;;;;49.20;22.90;;;;;;;;;;5033227;28;20366;-69
2022/01/14 09:10:25;;;;;;;43.65;22.23;;;;;;;;;;5032808;28;20030;-69
2022/01/14 09:12:51;;;;;;;37.70;19.83;;;;;;;;;;5033111;28;20456;-68
2022/01/14 09:15:17;;;;;;;41.60;20.92;;;;;;;;;;5033017;28;20080;-74
2022/01/14 09:17:43;;;;;;;40.90;21.08;;;;;;;;;;5033247;28;20046;-68
2022/01/14 09:20:11;;;;;;;38.05;20.38;;;;;;;;;;5032690;28;20038;-70
2022/01/14 09:22:36;;;;;;;40.55;20.98;;;;;;;;;;5032215;28;20103;-69
2022/01/14 09:25:04;;;;;;;43.40;20.70;;;;;;;;;;5032989;28;20029;-70
2022/01/14 09:27:32;;;;;;;42.08;21.05;;;;;;;;;;5032633;28;20495;-70
2022/01/14 09:29:59;;;;;;;38.88;19.92;;;;;;;;;;5032853;28;20132;-70
2022/01/14 09:32:25;;;;;;;42.50;20.58;;;;;;;;;;5033126;28;20079;-72
2022/01/14 09:34:52;;;;;;;44.40;21.48;;;;;;;;;;5032121;28;20033;-71
2022/01/14 09:37:20;;;;;;;44.97;21.77;;;;;;;;;;5032320;28;20485;-74
2022/01/14 09:39:46;;;;;;;48.15;22.90;;;;;;;;;;5032743;28;20036;-73
2022/01/14 09:42:13;;;;;;;47.70;23.63;;;;;;;;;;5032889;28;20033;-73
2022/01/14 09:44:42;;;;;;;48.20;24.77;;;;;;;;;;5047990;28;20197;-73
2022/01/14 09:47:08;;;;;;;52.15;25.17;;;;;;;;;;5032765;28;20072;-70
2022/01/14 09:49:34;;;;;;;48.38;24.13;;;;;;;;;;5032232;28;20144;-73
2022/01/14 09:52:00;;;;;;;50.92;25.17;;;;;;;;;;5032478;28;20044;-72
2022/01/14 09:54:26;;;;;;;50.42;27.42;;;;;;;;;;5032813;28;20476;-69
2022/01/14 09:56:52;;;;;;;55.88;26.40;;;;;;;;;;5031600;28;20091;-69
2022/01/14 09:59:19;;;;;;;46.15;23.63;;;;;;;;;;5031882;28;20029;-70
2022/01/14 10:01:46;;;;;;;46.35;22.15;;;;;;;;;;5032929;28;20492;-74
2022/01/14 10:04:21;;;;;;;45.97;23.75;;;;;;;;;;5033013;28;20052;-70
2022/01/14 10:06:59;;;;;;;48.38;24.02;;;;;;;;;;5032332;28;20025;-69
2022/01/14 10:09:37;;;;;;;51.33;25.35;;;;;;;;;;5032319;28;20075;-69
2022/01/14 10:12:18;;;;;;;49.97;27.52;;;;;;;;;;5032013;28;20034;-70
2022/01/14 10:14:56;;;;;;;51.08;24.75;;;;;;;;;;5031981;28;20033;-71
2022/01/14 10:17:23;;;;;;;53.80;24.90;;;;;;;;;;5032345;28;20030;-75
2022/01/14 10:19:49;;;;;;;40.05;21.30;;;;;;;;;;5032275;28;20022;-73
2022/01/14 10:22:26;;;;;;;45.75;22.30;;;;;;;;;;5032508;28;20076;-71
2022/01/14 10:25:11;;;;;;;41.65;21.98;;;;;;;;;;5031738;28;20480;-72
2022/01/14 10:27:48;;;;;;;46.67;24.25;;;;;;;;;;5031266;28;20061;-75
2022/01/14 10:30:19;;;;;;;43.08;23.42;;;;;;;;;;5031608;28;20084;-77
2022/01/14 10:32:58;;;;;;;46.17;24.60;;;;;;;;;;5032301;28;20112;-74
2022/01/14 10:35:27;;;;;;;51.80;24.45;;;;;;;;;;5031708;28;20468;-70
2022/01/14 10:37:59;;;;;;;48.83;24.95;;;;;;;;;;5031504;28;20025;-70
2022/01/14 10:40:28;;;;;;;38.88;21.90;;;;;;;;;;5031684;28;20037;-73
2022/01/14 10:43:21;;;;;;;37.70;20.02;;;;;;;;;;5031734;28;20028;-72
2022/01/14 10:45:48;;;;;;;29.27;15.80;;;;;;;;;;5030629;28;20087;-69
2022/01/14 10:48:16;;;;;;;26.33;15.20;;;;;;;;;;5031298;28;20021;-72
2022/01/14 10:50:57;;;;;;;33.92;16.60;;;;;;;;;;5046823;28;20034;-70
2022/01/14 10:53:43;;;;;;;29.65;15.55;;;;;;;;;;5031264;28;20048;-69
2022/01/14 10:56:12;;;;;;;27.90;14.15;;;;;;;;;;5048805;28;20057;-70
2022/01/14 10:58:44;;;;;;;28.17;14.32;;;;;;;;;;5036066;28;20045;-71
2022/01/14 11:01:18;;;;;;;29.67;15.63;;;;;;;;;;5035723;28;20041;-72
2022/01/14 11:03:52;;;;;;;29.83;14.80;;;;;;;;;;5033941;28;20097;-73
2022/01/14 11:06:19;;;;;;;;;;;;;;;;;;5035453;28;20033;-73
2022/01/14 11:08:47;;;;;;;30.15;15.07;;;;;;;;;;5034953;28;19913;-74
2022/01/14 11:11:14;;;;;;;26.60;14.35;;;;;;;;;;5035366;28;20033;-70
2022/01/14 11:13:40;;;;;;;27.10;14.77;;;;;;;;;;5029854;28;20010;-71
2022/01/14 11:16:06;;;;;;;30.70;15.38;;;;;;;;;;5033668;28;20057;-72
2022/01/14 11:18:32;;;;;;;28.52;14.60;;;;;;;;;;5033310;28;20080;-72
2022/01/14 11:23:43;;;;;;;26.20;14.02;;;;;;;;;;5034181;28;20384;-70
2022/01/14 11:26:15;;;;;;;30.42;15.00;;;;;;;;;;5033873;28;20025;-70
2022/01/14 11:28:43;;;;;;;24.85;14.02;;;;;;;;;;5034161;28;20082;-72
2022/01/14 11:31:30;;;;;;;30.40;17.02;;;;;;;;;;5048905;28;20068;-72
2022/01/14 11:33:58;;;;;;;30.67;15.50;;;;;;;;;;5034048;28;20041;-73
2022/01/14 11:36:25;;;;;;;28.30;13.55;;;;;;;;;;5032916;28;20065;-71
2022/01/14 11:38:51;;;;;;;27.10;12.38;;;;;;;;;;5014217;28;20069;-70
2022/01/14 11:41:39;;;;;;;27.02;12.45;;;;;;;;;;5026241;28;20112;-70
2022/01/14 11:44:08;;;;;;;23.70;12.25;;;;;;;;;;5034104;28;20036;-72
2022/01/14 11:46:34;;;;;;;23.65;12.95;;;;;;;;;;5032667;28;20029;-71
2022/01/14 11:49:00;;;;;;;21.80;11.95;;;;;;;;;;5031687;28;20037;-71
2022/01/14 11:51:26;;;;;;;24.08;11.57;;;;;;;;;;5025268;28;20026;-70
2022/01/14 11:54:05;;;;;;;25.70;12.27;;;;;;;;;;5033590;28;20084;-71
2022/01/14 11:56:31;;;;;;;19.70;11.93;;;;;;;;;;5032911;28;20439;-70
2022/01/14 11:59:18;;;;;;;23.23;10.75;;;;;;;;;;5033770;28;20493;-71
2022/01/14 12:01:56;;;;;;;16.27;8.15;;;;;;;;;;5033451;28;20476;-71
2022/01/14 12:04:43;;;;;;;17.35;9.00;;;;;;;;;;5032858;28;20475;-70
2022/01/14 12:07:08;;;;;;;18.85;9.65;;;;;;;;;;5032553;28;20048;-72
2022/01/14 12:10:09;;;;;;;13.90;8.80;;;;;;;;;;5033015;28;20029;-72
2022/01/14 12:12:35;;;;;;;14.80;9.00;;;;;;;;;;5030215;28;20441;-69
2022/01/14 12:15:04;;;;;;;17.13;9.63;;;;;;;;;;5016731;28;20785;-71
2022/01/14 12:17:41;;;;;;;22.55;10.02;;;;;;;;;;5012967;28;20048;-70
2022/01/14 12:20:17;;;;;;;20.02;9.77;;;;;;;;;;5013555;28;20053;-73
2022/01/14 12:23:08;;;;;;;18.17;10.10;;;;;;;;;;5023867;28;20030;-74
2022/01/14 12:25:42;;;;;;;19.70;10.63;;;;;;;;;;5015543;28;20457;-70
2022/01/14 12:28:18;;;;;;;19.15;10.10;;;;;;;;;;5012987;28;20025;-71
2022/01/14 12:31:00;;;;;;;29.25;12.43;;;;;;;;;;5020777;28;20046;-72
2022/01/14 12:33:42;;;;;;;31.50;16.63;;;;;;;;;;5032173;28;20061;-72
2022/01/14 12:36:18;;;;;;;30.17;16.08;;;;;;;;;;5032864;28;20045;-71
2022/01/14 12:38:45;;;;;;;29.27;17.10;;;;;;;;;;5033238;28;20137;-70
2022/01/14 12:41:19;;;;;;;34.40;17.27;;;;;;;;;;5032871;28;20033;-71
2022/01/14 12:43:48;;;;;;;34.47;17.50;;;;;;;;;;5032946;28;20473;-71
2022/01/14 12:49:33;;;;;;;33.85;19.38;;;;;;;;;;5031897;28;20049;-70
2022/01/14 12:52:29;;;;;;;33.85;17.95;;;;;;;;;;5032821;28;20037;-71
2022/01/14 12:54:56;;;;;;;29.17;16.25;;;;;;;;;;5032144;28;20044;-71
2022/01/14 12:57:24;;;;;;;29.42;16.15;;;;;;;;;;5032494;28;20029;-72
2022/01/14 12:59:51;;;;;;;30.75;15.07;;;;;;;;;;5032263;28;20253;-71
2022/01/14 13:02:25;;;;;;;28.60;15.88;;;;;;;;;;5016468;28;20472;-70
2022/01/14 13:05:08;;;;;;;29.48;15.40;;;;;;;;;;5031076;28;20044;-69
2022/01/14 13:07:36;;;;;;;28.65;15.38;;;;;;;;;;5032521;28;20037;-70
2022/01/14 13:10:04;;;;;;;23.60;11.98;;;;;;;;;;5016911;28;20029;-72
2022/01/14 13:12:36;;;;;;;22.15;11.88;;;;;;;;;;5013875;28;20052;-72
2022/01/14 13:15:04;;;;;;;20.13;12.52;;;;;;;;;;5026272;28;20045;-71
2022/01/14 13:17:33;;;;;;;23.65;13.45;;;;;;;;;;5023536;28;20025;-71
2022/01/14 13:20:11;;;;;;;21.85;11.00;;;;;;;;;;5010608;28;20117;-71
2022/01/14 13:22:39;;;;;;;17.45;9.43;;;;;;;;;;5012475;28;20048;-72
2022/01/14 13:25:11;;;;;;;17.10;9.90;;;;;;;;;;5030501;28;20051;-72
2022/01/14 13:27:41;;;;;;;17.30;9.40;;;;;;;;;;5016763;28;20042;-73
2022/01/14 13:30:21;;;;;;;30.02;14.15;;;;;;;;;;5011785;28;20504;-70
2022/01/14 13:32:50;;;;;;;24.45;13.88;;;;;;;;;;5024421;28;20037;-71
2022/01/14 13:35:31;;;;;;;24.17;12.48;;;;;;;;;;5012307;28;20042;-75
2022/01/14 13:38:08;;;;;;;15.32;8.43;;;;;;;;;;5011898;28;20157;-70
2022/01/14 13:41:02;;;;;;;14.32;8.65;;;;;;;;;;5022117;28;20041;-71
2022/01/14 13:43:32;;;;;;;16.80;8.55;;;;;;;;;;5032958;28;20048;-71
2022/01/14 13:46:06;;;;;;;17.73;9.35;;;;;;;;;;5025546;28;20038;-71
2022/01/14 13:48:44;;;;;;;12.75;7.97;;;;;;;;;;5023564;28;20037;-71
2022/01/14 13:51:13;;;;;;;15.43;7.90;;;;;;;;;;5032705;28;20025;-73
2022/01/14 13:53:44;;;;;;;13.90;7.80;;;;;;;;;;5031841;28;20039;-71
2022/01/14 13:56:13;;;;;;;19.02;8.77;;;;;;;;;;5013132;28;20129;-71
2022/01/14 13:58:43;;;;;;;13.15;7.25;;;;;;;;;;5013606;28;20030;-71
2022/01/14 14:01:10;;;;;;;15.68;7.72;;;;;;;;;;5012646;28;20100;-72
2022/01/14 14:03:51;;;;;;;10.80;6.93;;;;;;;;;;5012203;28;20045;-70
2022/01/14 14:06:32;;;;;;;12.52;7.32;;;;;;;;;;5012729;28;20033;-71
2022/01/14 14:09:10;;;;;;;16.13;7.80;;;;;;;;;;5011097;28;20485;-73
2022/01/14 14:17:04;;;;;;;13.45;7.47;;;;;;;;;;5011920;28;20069;-71
2022/01/14 14:19:47;;;;;;;20.50;12.95;;;;;;;;;;5011935;28;20033;-71
2022/01/14 14:22:15;;;;;;;23.35;11.85;;;;;;;;;;5030077;28;20137;-72
2022/01/14 14:25:02;;;;;;;30.85;15.65;;;;;;;;;;5030739;28;20057;-74
2022/01/14 14:27:28;;;;;;;25.27;12.20;;;;;;;;;;5025632;28;20083;-72
2022/01/14 14:29:56;;;;;;;21.60;11.32;;;;;;;;;;5030711;28;20481;-73
2022/01/14 14:32:27;;;;;;;25.85;13.93;;;;;;;;;;5031351;28;20057;-71
2022/01/14 14:34:56;;;;;;;27.73;14.35;;;;;;;;;;5031308;28;20112;-71
2022/01/14 14:37:22;;;;;;;25.50;12.23;;;;;;;;;;5031038;28;20488;-72
2022/01/14 14:39:48;;;;;;;27.02;13.98;;;;;;;;;;5031476;28;20500;-71
2022/01/14 14:42:14;;;;;;;23.77;11.93;;;;;;;;;;5030497;28;20018;-73
2022/01/14 14:44:40;;;;;;;24.70;11.40;;;;;;;;;;5031212;28;20060;-74
2022/01/14 14:47:07;;;;;;;21.25;12.02;;;;;;;;;;5031030;28;20538;-73
2022/01/14 14:49:36;;;;;;;25.50;12.73;;;;;;;;;;5031497;28;20065;-71
2022/01/14 14:52:02;;;;;;;21.77;11.70;;;;;;;;;;5031014;28;20050;-71
2022/01/14 14:54:29;;;;;;;20.98;11.60;;;;;;;;;;5031563;28;20034;-71
2022/01/14 14:56:55;;;;;;;24.15;12.40;;;;;;;;;;5030503;28;20022;-72
2022/01/14 14:59:21;;;;;;;27.50;12.00;;;;;;;;;;5030718;28;20099;-71
2022/01/14 15:01:47;;;;;;;26.10;12.30;;;;;;;;;;5030809;28;20495;-72
2022/01/14 15:04:13;;;;;;;24.90;12.23;;;;;;;;;;5030912;28;20037;-72
2022/01/14 15:06:39;;;;;;;24.48;12.80;;;;;;;;;;5030969;28;20026;-73
2022/01/14 15:09:05;;;;;;;25.42;14.07;;;;;;;;;;5030973;28;20037;-70